sensor_id;sensor_type;location;lat;lon;timestamp;P1;durP1;ratioP1;P2;durP2;ratioP2
908;SDS011;441;51.192;6.788;2024-03-23T00:54:27;20.90;;;20.07;;
908;SDS011;441;51.192;6.788;2024-03-23T00:56:53;21.10;;;20.30;;
908;SDS011;441;51.192;6.788;2024-03-23T00:59:20;20.80;;;20.00;;
908;SDS011;441;51.192;6.788;2024-03-23T01:01:47;20.60;;;19.80;;
908;SDS011;441;51.192;6.788;2024-03-23T01:04:14;21.57;;;20.70;;
908;SDS011;441;51.192;6.788;2024-03-23T01:06:41;22.07;;;21.10;;
908;SDS011;441;51.192;6.788;2024-03-23T01:09:08;22.33;;;21.43;;
908;SDS011;441;51.192;6.788;2024-03-23T01:11:37;21.40;;;20.60;;
908;SDS011;441;51.192;6.788;2024-03-23T01:14:04;21.10;;;19.97;;
908;SDS011;441;51.192;6.788;2024-03-23T01:16:29;21.10;;;20.30;;
908;SDS011;441;51.192;6.788;2024-03-23T01:18:56;22.60;;;21.67;;
908;SDS011;441;51.192;6.788;2024-03-23T01:21:22;20.90;;;20.00;;
908;SDS011;441;51.192;6.788;2024-03-23T01:23:49;20.97;;;19.90;;
908;SDS011;441;51.192;6.788;2024-03-23T01:26:15;21.70;;;20.73;;
908;SDS011;441;51.192;6.788;2024-03-23T01:28:43;20.97;;;20.17;;
908;SDS011;441;51.192;6.788;2024-03-23T01:31:09;21.27;;;20.27;;
908;SDS011;441;51.192;6.788;2024-03-23T01:33:37;21.00;;;20.20;;
908;SDS011;441;51.192;6.788;2024-03-23T01:36:04;21.10;;;20.30;;
908;SDS011;441;51.192;6.788;2024-03-23T01:38:32;21.40;;;20.30;;
908;SDS011;441;51.192;6.788;2024-03-23T01:40:59;21.20;;;20.30;;
908;SDS011;441;51.192;6.788;2024-03-23T01:43:26;21.40;;;20.60;;
908;SDS011;441;51.192;6.788;2024-03-23T01:45:53;21.63;;;20.83;;
908;SDS011;441;51.192;6.788;2024-03-23T01:48:20;24.80;;;23.80;;
908;SDS011;441;51.192;6.788;2024-03-23T01:50:47;23.13;;;22.17;;
908;SDS011;441;51.192;6.788;2024-03-23T01:53:14;24.77;;;23.77;;
908;SDS011;441;51.192;6.788;2024-03-23T01:55:42;24.87;;;23.97;;
908;SDS011;441;51.192;6.788;2024-03-23T01:58:09;24.00;;;23.10;;
908;SDS011;441;51.192;6.788;2024-03-23T02:00:35;24.30;;;23.40;;
908;SDS011;441;51.192;6.788;2024-03-23T02:03:06;25.20;;;24.20;;
908;SDS011;441;51.192;6.788;2024-03-23T02:05:47;24.93;;;23.93;;
908;SDS011;441;51.192;6.788;2024-03-23T02:08:14;24.67;;;23.60;;
908;SDS011;441;51.192;6.788;2024-03-23T02:10:40;21.07;;;20.27;;
908;SDS011;441;51.192;6.788;2024-03-23T02:13:07;22.13;;;21.13;;
908;SDS011;441;51.192;6.788;2024-03-23T02:15:33;21.43;;;20.63;;
908;SDS011;441;51.192;6.788;2024-03-23T02:18:00;19.80;;;19.10;;
908;SDS011;441;51.192;6.788;2024-03-23T02:20:28;20.37;;;19.60;;
908;SDS011;441;51.192;6.788;2024-03-23T02:22:56;19.93;;;19.23;;
908;SDS011;441;51.192;6.788;2024-03-23T02:25:22;23.00;;;22.10;;
908;SDS011;441;51.192;6.788;2024-03-23T02:27:49;23.23;;;22.43;;
908;SDS011;441;51.192;6.788;2024-03-23T02:30:15;26.03;;;25.13;;
908;SDS011;441;51.192;6.788;2024-03-23T02:32:42;25.27;;;24.37;;
908;SDS011;441;51.192;6.788;2024-03-23T02:35:08;25.03;;;24.13;;
908;SDS011;441;51.192;6.788;2024-03-23T02:37:36;25.13;;;24.13;;
908;SDS011;441;51.192;6.788;2024-03-23T02:40:04;24.40;;;23.50;;
908;SDS011;441;51.192;6.788;2024-03-23T02:42:31;23.23;;;22.43;;
908;SDS011;441;51.192;6.788;2024-03-23T02:44:57;21.13;;;20.33;;
908;SDS011;441;51.192;6.788;2024-03-23T02:47:24;20.90;;;20.10;;
908;SDS011;441;51.192;6.788;2024-03-23T02:49:50;21.93;;;20.93;;
908;SDS011;441;51.192;6.788;2024-03-23T02:52:17;21.13;;;20.27;;
908;SDS011;441;51.192;6.788;2024-03-23T02:54:43;21.57;;;20.77;;
908;SDS011;441;51.192;6.788;2024-03-23T02:57:12;20.90;;;20.10;;
908;SDS011;441;51.192;6.788;2024-03-23T02:59:37;20.80;;;20.00;;
908;SDS011;441;51.192;6.788;2024-03-23T03:02:04;20.07;;;19.27;;
908;SDS011;441;51.192;6.788;2024-03-23T03:04:30;19.60;;;18.90;;
908;SDS011;441;51.192;6.788;2024-03-23T03:06:57;21.70;;;20.90;;
908;SDS011;441;51.192;6.788;2024-03-23T03:09:23;20.70;;;19.90;;
908;SDS011;441;51.192;6.788;2024-03-23T03:11:50;21.17;;;20.47;;
908;SDS011;441;51.192;6.788;2024-03-23T03:14:17;20.17;;;19.37;;
908;SDS011;441;51.192;6.788;2024-03-23T03:16:45;19.90;;;19.10;;
908;SDS011;441;51.192;6.788;2024-03-23T03:19:11;20.70;;;19.90;;
908;SDS011;441;51.192;6.788;2024-03-23T03:21:38;20.90;;;20.10;;
908;SDS011;441;51.192;6.788;2024-03-23T03:24:06;21.00;;;20.20;;
908;SDS011;441;51.192;6.788;2024-03-23T03:26:33;21.50;;;20.63;;
908;SDS011;441;51.192;6.788;2024-03-23T03:28:59;21.63;;;20.43;;
908;SDS011;441;51.192;6.788;2024-03-23T03:31:28;20.53;;;19.73;;
908;SDS011;441;51.192;6.788;2024-03-23T03:33:54;20.83;;;20.03;;
908;SDS011;441;51.192;6.788;2024-03-23T03:36:21;21.07;;;20.13;;
908;SDS011;441;51.192;6.788;2024-03-23T03:38:47;20.23;;;19.53;;
908;SDS011;441;51.192;6.788;2024-03-23T03:41:14;21.13;;;20.20;;
908;SDS011;441;51.192;6.788;2024-03-23T03:43:41;20.77;;;19.97;;
908;SDS011;441;51.192;6.788;2024-03-23T03:46:08;20.37;;;19.67;;
908;SDS011;441;51.192;6.788;2024-03-23T03:48:36;20.83;;;20.03;;
908;SDS011;441;51.192;6.788;2024-03-23T03:51:03;20.57;;;19.87;;
908;SDS011;441;51.192;6.788;2024-03-23T03:53:29;20.30;;;19.50;;
908;SDS011;441;51.192;6.788;2024-03-23T03:56:00;21.60;;;20.60;;
908;SDS011;441;51.192;6.788;2024-03-23T03:58:26;20.90;;;20.10;;
908;SDS011;441;51.192;6.788;2024-03-23T04:00:52;21.53;;;20.63;;
908;SDS011;441;51.192;6.788;2024-03-23T04:03:18;21.10;;;20.30;;
908;SDS011;441;51.192;6.788;2024-03-23T04:05:50;21.80;;;20.90;;
908;SDS011;441;51.192;6.788;2024-03-23T04:08:16;21.60;;;20.77;;
908;SDS011;441;51.192;6.788;2024-03-23T04:10:43;21.20;;;20.30;;
908;SDS011;441;51.192;6.788;2024-03-23T04:13:10;21.83;;;20.93;;
908;SDS011;441;51.192;6.788;2024-03-23T04:15:37;23.90;;;22.80;;
908;SDS011;441;51.192;6.788;2024-03-23T04:18:04;21.73;;;20.87;;
908;SDS011;441;51.192;6.788;2024-03-23T04:20:31;21.13;;;20.33;;
908;SDS011;441;51.192;6.788;2024-03-23T04:22:59;20.40;;;19.70;;
908;SDS011;441;51.192;6.788;2024-03-23T04:25:26;20.93;;;20.23;;
908;SDS011;441;51.192;6.788;2024-03-23T04:27:52;20.70;;;19.90;;
908;SDS011;441;51.192;6.788;2024-03-23T04:30:18;22.20;;;21.40;;
908;SDS011;441;51.192;6.788;2024-03-23T04:32:44;21.20;;;20.33;;
908;SDS011;441;51.192;6.788;2024-03-23T04:35:12;20.73;;;20.03;;
908;SDS011;441;51.192;6.788;2024-03-23T04:37:38;21.10;;;20.30;;
908;SDS011;441;51.192;6.788;2024-03-23T04:40:08;20.83;;;20.13;;
908;SDS011;441;51.192;6.788;2024-03-23T04:42:36;20.00;;;19.20;;
908;SDS011;441;51.192;6.788;2024-03-23T04:45:04;20.50;;;19.70;;
908;SDS011;441;51.192;6.788;2024-03-23T04:47:32;21.03;;;20.23;;
908;SDS011;441;51.192;6.788;2024-03-23T04:50:00;21.63;;;20.83;;
908;SDS011;441;51.192;6.788;2024-03-23T04:52:28;21.50;;;20.70;;
908;SDS011;441;51.192;6.788;2024-03-23T04:54:54;20.70;;;20.00;;
908;SDS011;441;51.192;6.788;2024-03-23T04:57:22;21.23;;;20.43;;
908;SDS011;441;51.192;6.788;2024-03-23T04:59:49;21.37;;;20.60;;
908;SDS011;441;51.192;6.788;2024-03-23T05:02:16;20.20;;;19.50;;
908;SDS011;441;51.192;6.788;2024-03-23T05:04:43;22.23;;;21.43;;
908;SDS011;441;51.192;6.788;2024-03-23T05:07:09;21.10;;;20.30;;
908;SDS011;441;51.192;6.788;2024-03-23T05:09:36;22.57;;;21.63;;
908;SDS011;441;51.192;6.788;2024-03-23T05:12:02;21.97;;;21.07;;
908;SDS011;441;51.192;6.788;2024-03-23T05:14:31;24.37;;;23.37;;
908;SDS011;441;51.192;6.788;2024-03-23T05:16:56;22.77;;;21.93;;
908;SDS011;441;51.192;6.788;2024-03-23T05:19:24;22.17;;;21.33;;
908;SDS011;441;51.192;6.788;2024-03-23T05:21:50;21.90;;;21.10;;
908;SDS011;441;51.192;6.788;2024-03-23T05:24:18;22.17;;;21.27;;
908;SDS011;441;51.192;6.788;2024-03-23T05:26:45;22.70;;;21.83;;
908;SDS011;441;51.192;6.788;2024-03-23T05:29:11;20.70;;;20.00;;
908;SDS011;441;51.192;6.788;2024-03-23T05:31:39;21.37;;;20.57;;
908;SDS011;441;51.192;6.788;2024-03-23T05:34:08;20.30;;;19.60;;
908;SDS011;441;51.192;6.788;2024-03-23T05:36:35;22.10;;;21.20;;
908;SDS011;441;51.192;6.788;2024-03-23T05:39:02;22.90;;;22.00;;
908;SDS011;441;51.192;6.788;2024-03-23T05:41:28;22.10;;;21.30;;
908;SDS011;441;51.192;6.788;2024-03-23T05:43:56;22.60;;;21.80;;
908;SDS011;441;51.192;6.788;2024-03-23T05:46:21;21.63;;;20.83;;
908;SDS011;441;51.192;6.788;2024-03-23T05:48:51;21.40;;;20.50;;
908;SDS011;441;51.192;6.788;2024-03-23T05:51:17;21.43;;;20.60;;
908;SDS011;441;51.192;6.788;2024-03-23T05:53:44;22.17;;;21.37;;
908;SDS011;441;51.192;6.788;2024-03-23T05:56:10;22.00;;;21.20;;
908;SDS011;441;51.192;6.788;2024-03-23T05:58:37;23.50;;;22.60;;
908;SDS011;441;51.192;6.788;2024-03-23T06:01:03;22.80;;;21.90;;
908;SDS011;441;51.192;6.788;2024-03-23T06:03:29;22.40;;;21.50;;
908;SDS011;441;51.192;6.788;2024-03-23T06:05:56;24.43;;;22.73;;
908;SDS011;441;51.192;6.788;2024-03-23T06:08:23;23.43;;;22.53;;
908;SDS011;441;51.192;6.788;2024-03-23T06:10:49;21.97;;;21.07;;
908;SDS011;441;51.192;6.788;2024-03-23T06:13:16;22.20;;;21.40;;
908;SDS011;441;51.192;6.788;2024-03-23T06:15:42;23.37;;;22.47;;
908;SDS011;441;51.192;6.788;2024-03-23T06:18:11;23.73;;;22.77;;
908;SDS011;441;51.192;6.788;2024-03-23T06:20:37;24.00;;;23.10;;
908;SDS011;441;51.192;6.788;2024-03-23T06:23:05;23.70;;;22.80;;
908;SDS011;441;51.192;6.788;2024-03-23T06:25:31;23.67;;;22.77;;
908;SDS011;441;51.192;6.788;2024-03-23T06:27:57;22.27;;;21.47;;
908;SDS011;441;51.192;6.788;2024-03-23T06:30:23;23.30;;;22.40;;
908;SDS011;441;51.192;6.788;2024-03-23T06:32:51;22.53;;;21.63;;
908;SDS011;441;51.192;6.788;2024-03-23T06:35:18;23.50;;;22.50;;
908;SDS011;441;51.192;6.788;2024-03-23T06:37:44;22.93;;;22.03;;
908;SDS011;441;51.192;6.788;2024-03-23T06:40:12;23.17;;;22.27;;
908;SDS011;441;51.192;6.788;2024-03-23T06:42:38;22.30;;;21.40;;
908;SDS011;441;51.192;6.788;2024-03-23T06:45:05;22.90;;;22.10;;
908;SDS011;441;51.192;6.788;2024-03-23T06:47:32;22.77;;;21.97;;
908;SDS011;441;51.192;6.788;2024-03-23T06:49:59;22.37;;;21.57;;
908;SDS011;441;51.192;6.788;2024-03-23T06:52:28;23.23;;;22.23;;
908;SDS011;441;51.192;6.788;2024-03-23T06:54:54;23.13;;;22.03;;
908;SDS011;441;51.192;6.788;2024-03-23T06:57:22;22.37;;;21.47;;
908;SDS011;441;51.192;6.788;2024-03-23T06:59:48;22.43;;;21.73;;
908;SDS011;441;51.192;6.788;2024-03-23T07:02:16;23.30;;;22.40;;
908;SDS011;441;51.192;6.788;2024-03-23T07:04:42;23.97;;;23.07;;
908;SDS011;441;51.192;6.788;2024-03-23T07:07:09;24.13;;;23.23;;
908;SDS011;441;51.192;6.788;2024-03-23T07:09:35;24.20;;;23.00;;
908;SDS011;441;51.192;6.788;2024-03-23T07:12:03;23.47;;;22.50;;
908;SDS011;441;51.192;6.788;2024-03-23T07:14:31;22.93;;;22.03;;
908;SDS011;441;51.192;6.788;2024-03-23T07:16:58;20.87;;;20.10;;
908;SDS011;441;51.192;6.788;2024-03-23T07:19:24;19.90;;;19.30;;
908;SDS011;441;51.192;6.788;2024-03-23T07:21:53;21.33;;;20.20;;
908;SDS011;441;51.192;6.788;2024-03-23T07:24:19;23.03;;;21.90;;
908;SDS011;441;51.192;6.788;2024-03-23T07:26:46;22.43;;;21.40;;
908;SDS011;441;51.192;6.788;2024-03-23T07:29:13;22.90;;;21.90;;
908;SDS011;441;51.192;6.788;2024-03-23T07:31:41;23.52;;;22.42;;
908;SDS011;441;51.192;6.788;2024-03-23T07:34:07;20.60;;;19.70;;
908;SDS011;441;51.192;6.788;2024-03-23T07:36:34;23.20;;;22.30;;
908;SDS011;441;51.192;6.788;2024-03-23T07:39:00;25.17;;;24.27;;
908;SDS011;441;51.192;6.788;2024-03-23T07:41:29;24.83;;;23.83;;
908;SDS011;441;51.192;6.788;2024-03-23T07:43:55;24.23;;;23.10;;
908;SDS011;441;51.192;6.788;2024-03-23T07:46:22;24.53;;;23.43;;
908;SDS011;441;51.192;6.788;2024-03-23T07:48:52;25.33;;;24.30;;
908;SDS011;441;51.192;6.788;2024-03-23T07:51:20;19.30;;;18.50;;
908;SDS011;441;51.192;6.788;2024-03-23T07:53:47;22.23;;;21.30;;
908;SDS011;441;51.192;6.788;2024-03-23T07:56:15;22.17;;;21.17;;
908;SDS011;441;51.192;6.788;2024-03-23T07:58:43;21.43;;;20.20;;
908;SDS011;441;51.192;6.788;2024-03-23T08:01:10;23.03;;;21.90;;
908;SDS011;441;51.192;6.788;2024-03-23T08:03:38;22.30;;;21.13;;
908;SDS011;441;51.192;6.788;2024-03-23T08:06:08;20.13;;;19.33;;
908;SDS011;441;51.192;6.788;2024-03-23T08:08:35;19.90;;;19.10;;
908;SDS011;441;51.192;6.788;2024-03-23T08:11:02;21.47;;;20.47;;
908;SDS011;441;51.192;6.788;2024-03-23T08:13:28;23.30;;;22.07;;
908;SDS011;441;51.192;6.788;2024-03-23T08:15:56;23.23;;;22.23;;
908;SDS011;441;51.192;6.788;2024-03-23T08:18:27;20.50;;;19.70;;
908;SDS011;441;51.192;6.788;2024-03-23T08:20:57;20.53;;;19.63;;
908;SDS011;441;51.192;6.788;2024-03-23T08:23:25;21.10;;;20.30;;
908;SDS011;441;51.192;6.788;2024-03-23T08:25:57;20.17;;;19.20;;
908;SDS011;441;51.192;6.788;2024-03-23T08:28:24;19.97;;;19.27;;
908;SDS011;441;51.192;6.788;2024-03-23T08:30:52;22.20;;;21.40;;
908;SDS011;441;51.192;6.788;2024-03-23T08:33:18;22.07;;;21.07;;
908;SDS011;441;51.192;6.788;2024-03-23T08:35:53;21.70;;;20.80;;
908;SDS011;441;51.192;6.788;2024-03-23T08:38:20;19.90;;;19.10;;
908;SDS011;441;51.192;6.788;2024-03-23T08:40:57;21.57;;;20.77;;
908;SDS011;441;51.192;6.788;2024-03-23T08:43:23;20.80;;;20.10;;
908;SDS011;441;51.192;6.788;2024-03-23T08:45:50;21.23;;;20.10;;
908;SDS011;441;51.192;6.788;2024-03-23T08:48:17;24.63;;;23.50;;
908;SDS011;441;51.192;6.788;2024-03-23T08:50:45;23.85;;;22.85;;
908;SDS011;441;51.192;6.788;2024-03-23T08:53:11;22.87;;;21.90;;
908;SDS011;441;51.192;6.788;2024-03-23T08:55:38;24.30;;;23.10;;
908;SDS011;441;51.192;6.788;2024-03-23T08:58:05;23.10;;;22.13;;
908;SDS011;441;51.192;6.788;2024-03-23T09:00:33;23.50;;;22.40;;
908;SDS011;441;51.192;6.788;2024-03-23T09:02:59;22.97;;;21.80;;
908;SDS011;441;51.192;6.788;2024-03-23T09:05:26;22.27;;;21.30;;
908;SDS011;441;51.192;6.788;2024-03-23T09:07:53;24.97;;;23.63;;
908;SDS011;441;51.192;6.788;2024-03-23T09:10:20;20.90;;;19.97;;
908;SDS011;441;51.192;6.788;2024-03-23T09:12:47;26.27;;;25.17;;
908;SDS011;441;51.192;6.788;2024-03-23T09:15:15;27.57;;;26.27;;
908;SDS011;441;51.192;6.788;2024-03-23T09:17:41;22.10;;;21.20;;
908;SDS011;441;51.192;6.788;2024-03-23T09:20:08;22.90;;;21.87;;
908;SDS011;441;51.192;6.788;2024-03-23T09:22:34;22.27;;;21.47;;
908;SDS011;441;51.192;6.788;2024-03-23T09:25:01;22.20;;;21.40;;
908;SDS011;441;51.192;6.788;2024-03-23T09:27:27;22.10;;;21.30;;
908;SDS011;441;51.192;6.788;2024-03-23T09:29:54;19.83;;;19.03;;
908;SDS011;441;51.192;6.788;2024-03-23T09:32:22;20.00;;;19.17;;
908;SDS011;441;51.192;6.788;2024-03-23T09:34:49;19.07;;;18.43;;
908;SDS011;441;51.192;6.788;2024-03-23T09:37:15;18.83;;;18.13;;
908;SDS011;441;51.192;6.788;2024-03-23T09:39:42;19.53;;;18.73;;
908;SDS011;441;51.192;6.788;2024-03-23T09:42:08;18.90;;;18.20;;
908;SDS011;441;51.192;6.788;2024-03-23T09:44:35;20.00;;;19.20;;
908;SDS011;441;51.192;6.788;2024-03-23T09:47:01;20.40;;;19.47;;
908;SDS011;441;51.192;6.788;2024-03-23T09:49:31;19.90;;;19.20;;
908;SDS011;441;51.192;6.788;2024-03-23T09:52:01;21.10;;;20.20;;
908;SDS011;441;51.192;6.788;2024-03-23T09:54:28;20.80;;;20.00;;
908;SDS011;441;51.192;6.788;2024-03-23T09:56:54;20.47;;;19.67;;
908;SDS011;441;51.192;6.788;2024-03-23T09:59:21;20.57;;;19.67;;
908;SDS011;441;51.192;6.788;2024-03-23T10:01:46;21.60;;;20.70;;
908;SDS011;441;51.192;6.788;2024-03-23T10:07:10;21.77;;;20.80;;
908;SDS011;441;51.192;6.788;2024-03-23T10:09:39;21.97;;;20.90;;
908;SDS011;441;51.192;6.788;2024-03-23T10:12:09;20.17;;;19.47;;
908;SDS011;441;51.192;6.788;2024-03-23T10:14:37;20.30;;;19.60;;
908;SDS011;441;51.192;6.788;2024-03-23T10:17:12;20.53;;;19.73;;
908;SDS011;441;51.192;6.788;2024-03-23T10:19:44;20.87;;;19.97;;
908;SDS011;441;51.192;6.788;2024-03-23T10:22:12;20.97;;;20.07;;
908;SDS011;441;51.192;6.788;2024-03-23T10:24:40;23.87;;;22.80;;
908;SDS011;441;51.192;6.788;2024-03-23T10:27:06;26.73;;;25.63;;
908;SDS011;441;51.192;6.788;2024-03-23T10:29:33;30.87;;;29.57;;
908;SDS011;441;51.192;6.788;2024-03-23T10:32:08;28.27;;;27.03;;
908;SDS011;441;51.192;6.788;2024-03-23T10:34:36;24.53;;;23.27;;
908;SDS011;441;51.192;6.788;2024-03-23T10:37:04;23.03;;;22.13;;
908;SDS011;441;51.192;6.788;2024-03-23T10:39:32;25.80;;;24.80;;
908;SDS011;441;51.192;6.788;2024-03-23T10:42:00;25.40;;;24.40;;
908;SDS011;441;51.192;6.788;2024-03-23T10:44:29;25.23;;;24.13;;
908;SDS011;441;51.192;6.788;2024-03-23T10:46:56;22.70;;;21.80;;
908;SDS011;441;51.192;6.788;2024-03-23T10:49:26;24.65;;;23.55;;
908;SDS011;441;51.192;6.788;2024-03-23T10:51:54;24.33;;;23.33;;
908;SDS011;441;51.192;6.788;2024-03-23T10:54:24;14.07;;;13.47;;
908;SDS011;441;51.192;6.788;2024-03-23T10:56:50;14.50;;;13.80;;
908;SDS011;441;51.192;6.788;2024-03-23T10:59:21;16.70;;;16.17;;
908;SDS011;441;51.192;6.788;2024-03-23T11:01:53;28.90;;;27.60;;
908;SDS011;441;51.192;6.788;2024-03-23T11:04:30;27.60;;;26.53;;
908;SDS011;441;51.192;6.788;2024-03-23T11:06:57;26.50;;;25.50;;
908;SDS011;441;51.192;6.788;2024-03-23T11:09:40;26.35;;;25.27;;
908;SDS011;441;51.192;6.788;2024-03-23T11:12:25;29.90;;;28.53;;
908;SDS011;441;51.192;6.788;2024-03-23T11:14:53;25.70;;;24.60;;
908;SDS011;441;51.192;6.788;2024-03-23T11:17:21;26.70;;;25.70;;
908;SDS011;441;51.192;6.788;2024-03-23T11:19:55;27.27;;;26.27;;
908;SDS011;441;51.192;6.788;2024-03-23T11:22:41;28.57;;;27.10;;
908;SDS011;441;51.192;6.788;2024-03-23T11:25:17;24.45;;;23.35;;
908;SDS011;441;51.192;6.788;2024-03-23T11:27:45;28.50;;;27.40;;
908;SDS011;441;51.192;6.788;2024-03-23T11:30:13;27.10;;;26.10;;
908;SDS011;441;51.192;6.788;2024-03-23T11:32:40;26.07;;;25.17;;
908;SDS011;441;51.192;6.788;2024-03-23T11:35:08;28.60;;;27.40;;
908;SDS011;441;51.192;6.788;2024-03-23T11:37:35;26.47;;;25.37;;
908;SDS011;441;51.192;6.788;2024-03-23T11:42:45;25.53;;;24.53;;
908;SDS011;441;51.192;6.788;2024-03-23T11:45:12;26.80;;;25.80;;
908;SDS011;441;51.192;6.788;2024-03-23T11:47:39;26.60;;;25.60;;
908;SDS011;441;51.192;6.788;2024-03-23T11:50:06;25.80;;;24.80;;
908;SDS011;441;51.192;6.788;2024-03-23T11:52:32;26.33;;;25.43;;
908;SDS011;441;51.192;6.788;2024-03-23T11:55:03;27.60;;;26.43;;
908;SDS011;441;51.192;6.788;2024-03-23T11:57:31;25.10;;;24.00;;
908;SDS011;441;51.192;6.788;2024-03-23T11:59:57;23.80;;;23.00;;
908;SDS011;441;51.192;6.788;2024-03-23T12:02:23;24.30;;;23.50;;
908;SDS011;441;51.192;6.788;2024-03-23T12:04:50;25.50;;;24.40;;
908;SDS011;441;51.192;6.788;2024-03-23T12:07:16;25.30;;;24.50;;
908;SDS011;441;51.192;6.788;2024-03-23T12:09:44;23.70;;;22.90;;
908;SDS011;441;51.192;6.788;2024-03-23T12:12:13;24.80;;;23.90;;
908;SDS011;441;51.192;6.788;2024-03-23T12:14:42;24.90;;;24.10;;
908;SDS011;441;51.192;6.788;2024-03-23T12:17:09;24.40;;;23.60;;
908;SDS011;441;51.192;6.788;2024-03-23T12:19:37;23.60;;;22.80;;
908;SDS011;441;51.192;6.788;2024-03-23T12:22:03;23.10;;;22.30;;
908;SDS011;441;51.192;6.788;2024-03-23T12:24:31;23.63;;;22.73;;
908;SDS011;441;51.192;6.788;2024-03-23T12:26:59;24.20;;;23.30;;
908;SDS011;441;51.192;6.788;2024-03-23T12:29:28;23.50;;;22.70;;
908;SDS011;441;51.192;6.788;2024-03-23T12:31:55;24.00;;;23.00;;
908;SDS011;441;51.192;6.788;2024-03-23T12:34:22;25.40;;;24.50;;
908;SDS011;441;51.192;6.788;2024-03-23T12:36:48;25.13;;;24.13;;
908;SDS011;441;51.192;6.788;2024-03-23T12:39:15;26.07;;;24.97;;
908;SDS011;441;51.192;6.788;2024-03-23T12:41:40;27.13;;;26.17;;
908;SDS011;441;51.192;6.788;2024-03-23T12:44:07;24.50;;;23.70;;
908;SDS011;441;51.192;6.788;2024-03-23T12:46:36;25.50;;;24.60;;
908;SDS011;441;51.192;6.788;2024-03-23T12:49:04;25.63;;;24.73;;
908;SDS011;441;51.192;6.788;2024-03-23T12:51:31;25.60;;;24.70;;
908;SDS011;441;51.192;6.788;2024-03-23T12:53:57;26.90;;;25.90;;
908;SDS011;441;51.192;6.788;2024-03-23T12:56:24;26.87;;;25.80;;
908;SDS011;441;51.192;6.788;2024-03-23T12:58:49;20.05;;;19.35;;
908;SDS011;441;51.192;6.788;2024-03-23T13:01:18;22.20;;;21.50;;
908;SDS011;441;51.192;6.788;2024-03-23T13:03:45;20.43;;;19.83;;
908;SDS011;441;51.192;6.788;2024-03-23T13:06:14;21.53;;;20.70;;
908;SDS011;441;51.192;6.788;2024-03-23T13:08:40;23.20;;;21.97;;
908;SDS011;441;51.192;6.788;2024-03-23T13:11:08;20.47;;;19.83;;
908;SDS011;441;51.192;6.788;2024-03-23T13:13:35;22.43;;;21.63;;
908;SDS011;441;51.192;6.788;2024-03-23T13:16:02;22.37;;;21.57;;
908;SDS011;441;51.192;6.788;2024-03-23T13:18:29;21.30;;;20.60;;
908;SDS011;441;51.192;6.788;2024-03-23T13:20:55;22.00;;;21.30;;
908;SDS011;441;51.192;6.788;2024-03-23T13:23:23;21.80;;;21.10;;
908;SDS011;441;51.192;6.788;2024-03-23T13:25:49;22.00;;;21.30;;
908;SDS011;441;51.192;6.788;2024-03-23T13:28:18;22.40;;;21.70;;
908;SDS011;441;51.192;6.788;2024-03-23T13:30:49;21.80;;;21.10;;
908;SDS011;441;51.192;6.788;2024-03-23T13:33:16;22.43;;;21.67;;
908;SDS011;441;51.192;6.788;2024-03-23T13:35:48;23.43;;;22.53;;
908;SDS011;441;51.192;6.788;2024-03-23T13:38:15;22.30;;;21.60;;
908;SDS011;441;51.192;6.788;2024-03-23T13:40:49;23.10;;;22.30;;
908;SDS011;441;51.192;6.788;2024-03-23T13:43:17;22.03;;;21.23;;
908;SDS011;441;51.192;6.788;2024-03-23T13:45:43;22.20;;;21.50;;
908;SDS011;441;51.192;6.788;2024-03-23T13:48:10;22.73;;;21.93;;
908;SDS011;441;51.192;6.788;2024-03-23T13:50:35;21.67;;;20.77;;
908;SDS011;441;51.192;6.788;2024-03-23T13:53:02;19.10;;;18.50;;
908;SDS011;441;51.192;6.788;2024-03-23T13:55:28;21.93;;;21.13;;
908;SDS011;441;51.192;6.788;2024-03-23T13:57:56;22.53;;;21.73;;
908;SDS011;441;51.192;6.788;2024-03-23T14:00:22;22.77;;;21.97;;
908;SDS011;441;51.192;6.788;2024-03-23T14:02:49;22.05;;;21.35;;
908;SDS011;441;51.192;6.788;2024-03-23T14:05:15;21.57;;;20.87;;
908;SDS011;441;51.192;6.788;2024-03-23T14:07:42;21.10;;;20.40;;
908;SDS011;441;51.192;6.788;2024-03-23T14:10:08;21.10;;;20.30;;
908;SDS011;441;51.192;6.788;2024-03-23T14:12:36;21.27;;;20.57;;
908;SDS011;441;51.192;6.788;2024-03-23T14:15:04;21.60;;;20.80;;
908;SDS011;441;51.192;6.788;2024-03-23T14:17:31;23.20;;;22.40;;
908;SDS011;441;51.192;6.788;2024-03-23T14:19:57;21.08;;;20.27;;
908;SDS011;441;51.192;6.788;2024-03-23T14:22:26;21.37;;;20.60;;
908;SDS011;441;51.192;6.788;2024-03-23T14:24:51;23.13;;;22.27;;
908;SDS011;441;51.192;6.788;2024-03-23T14:27:18;21.20;;;20.50;;
908;SDS011;441;51.192;6.788;2024-03-23T14:29:45;21.53;;;20.83;;
908;SDS011;441;51.192;6.788;2024-03-23T14:32:13;20.30;;;19.70;;
908;SDS011;441;51.192;6.788;2024-03-23T14:34:39;21.40;;;20.37;;
908;SDS011;441;51.192;6.788;2024-03-23T14:37:06;19.47;;;18.80;;
908;SDS011;441;51.192;6.788;2024-03-23T14:39:32;18.83;;;18.20;;
908;SDS011;441;51.192;6.788;2024-03-23T14:41:59;22.53;;;21.73;;
908;SDS011;441;51.192;6.788;2024-03-23T14:44:26;21.83;;;21.03;;
908;SDS011;441;51.192;6.788;2024-03-23T14:46:53;21.13;;;20.33;;
908;SDS011;441;51.192;6.788;2024-03-23T14:49:21;21.67;;;20.97;;
908;SDS011;441;51.192;6.788;2024-03-23T14:51:49;21.07;;;20.37;;
908;SDS011;441;51.192;6.788;2024-03-23T14:54:15;22.93;;;21.80;;
908;SDS011;441;51.192;6.788;2024-03-23T14:56:41;21.10;;;20.30;;
908;SDS011;441;51.192;6.788;2024-03-23T14:59:07;21.97;;;21.27;;
908;SDS011;441;51.192;6.788;2024-03-23T15:01:34;21.93;;;21.10;;
908;SDS011;441;51.192;6.788;2024-03-23T15:04:00;21.83;;;20.97;;
908;SDS011;441;51.192;6.788;2024-03-23T15:06:30;23.40;;;22.17;;
908;SDS011;441;51.192;6.788;2024-03-23T15:08:55;23.97;;;23.07;;
908;SDS011;441;51.192;6.788;2024-03-23T15:11:22;22.73;;;21.70;;
908;SDS011;441;51.192;6.788;2024-03-23T15:13:49;24.40;;;23.50;;
908;SDS011;441;51.192;6.788;2024-03-23T15:16:16;21.57;;;20.77;;
908;SDS011;441;51.192;6.788;2024-03-23T15:18:42;20.80;;;20.10;;
908;SDS011;441;51.192;6.788;2024-03-23T15:21:09;20.90;;;20.00;;
908;SDS011;441;51.192;6.788;2024-03-23T15:23:37;21.40;;;20.50;;
908;SDS011;441;51.192;6.788;2024-03-23T15:26:04;22.10;;;21.20;;
908;SDS011;441;51.192;6.788;2024-03-23T15:28:31;22.40;;;21.57;;
908;SDS011;441;51.192;6.788;2024-03-23T15:31:06;23.57;;;22.40;;
908;SDS011;441;51.192;6.788;2024-03-23T15:33:33;23.60;;;22.33;;
908;SDS011;441;51.192;6.788;2024-03-23T15:36:00;24.57;;;23.10;;
908;SDS011;441;51.192;6.788;2024-03-23T15:38:26;23.57;;;22.30;;
908;SDS011;441;51.192;6.788;2024-03-23T15:40:55;25.07;;;23.40;;
908;SDS011;441;51.192;6.788;2024-03-23T15:43:21;25.17;;;23.03;;
908;SDS011;441;51.192;6.788;2024-03-23T15:45:53;28.90;;;26.40;;
908;SDS011;441;51.192;6.788;2024-03-23T15:48:19;26.00;;;24.30;;
908;SDS011;441;51.192;6.788;2024-03-23T15:50:50;26.47;;;24.43;;
908;SDS011;441;51.192;6.788;2024-03-23T15:53:18;25.93;;;23.93;;
908;SDS011;441;51.192;6.788;2024-03-23T15:55:45;23.77;;;22.37;;
908;SDS011;441;51.192;6.788;2024-03-23T15:58:12;24.33;;;22.83;;
908;SDS011;441;51.192;6.788;2024-03-23T16:00:39;26.20;;;24.07;;
908;SDS011;441;51.192;6.788;2024-03-23T16:03:04;24.57;;;23.40;;
908;SDS011;441;51.192;6.788;2024-03-23T16:05:31;26.87;;;25.13;;
908;SDS011;441;51.192;6.788;2024-03-23T16:07:57;25.83;;;24.23;;
908;SDS011;441;51.192;6.788;2024-03-23T16:10:23;24.93;;;23.23;;
908;SDS011;441;51.192;6.788;2024-03-23T16:12:49;22.97;;;21.90;;
908;SDS011;441;51.192;6.788;2024-03-23T16:15:17;26.87;;;24.97;;